createdAt,value
2019-03-25T00:02:27.333Z,25.17
2019-03-25T00:04:59.754Z,26.27
2019-03-25T00:07:32.625Z,18.75
2019-03-25T00:10:01.478Z,23.05
2019-03-25T00:12:30.359Z,35.23
2019-03-25T00:14:59.452Z,35.00
2019-03-25T00:17:31.108Z,36.05
2019-03-25T00:20:00.000Z,36.35
2019-03-25T00:22:28.787Z,29.42
2019-03-25T00:25:00.331Z,28.92
2019-03-25T00:27:29.225Z,30.57
2019-03-25T00:29:58.219Z,21.93
2019-03-25T00:32:27.024Z,22.98
2019-03-25T00:34:55.896Z,23.35
2019-03-25T00:37:24.887Z,33.42
2019-03-25T00:39:53.773Z,36.33
2019-03-25T00:42:22.766Z,38.65
2019-03-25T00:44:51.655Z,33.18
2019-03-25T00:47:20.749Z,28.85
2019-03-25T00:49:49.641Z,25.23
2019-03-25T00:52:18.530Z,31.00
2019-03-25T00:54:50.185Z,27.40
2019-03-25T00:57:17.844Z,32.75
2019-03-25T00:59:48.885Z,28.62
2019-03-25T01:02:17.073Z,31.25
2019-03-25T01:04:45.949Z,28.27
2019-03-25T01:07:14.942Z,24.32
2019-03-25T01:09:43.826Z,32.75
2019-03-25T01:12:12.715Z,23.47
2019-03-25T01:14:41.604Z,25.62
2019-03-25T01:17:10.499Z,31.55
2019-03-25T01:19:39.389Z,32.03
2019-03-25T01:22:10.361Z,32.33
2019-03-25T01:24:39.419Z,27.73
2019-03-25T01:27:08.307Z,31.25
2019-03-25T01:29:39.665Z,26.42
2019-03-25T01:32:08.542Z,29.23
2019-03-25T01:34:37.432Z,26.73
2019-03-25T01:37:06.229Z,27.67
2019-03-25T01:39:35.113Z,27.75
2019-03-25T01:42:04.009Z,26.15
2019-03-25T01:44:32.896Z,26.10
2019-03-25T01:47:01.776Z,27.30
2019-03-25T01:49:30.584Z,28.62
2019-03-25T01:51:59.368Z,21.62
2019-03-25T01:54:28.241Z,21.50
2019-03-25T01:56:57.232Z,28.92
2019-03-25T01:59:26.951Z,27.50
2019-03-25T02:01:55.831Z,24.45
2019-03-25T02:04:25.747Z,30.30
2019-03-25T02:06:57.196Z,16.90
2019-03-25T02:09:26.188Z,27.25
2019-03-25T02:11:54.982Z,25.37
2019-03-25T02:14:23.865Z,24.00
2019-03-25T02:16:52.751Z,26.68
2019-03-25T02:19:21.666Z,34.05
2019-03-25T02:21:59.235Z,25.65
2019-03-25T02:24:28.125Z,28.98
2019-03-25T02:27:00.916Z,35.30
2019-03-25T02:29:34.873Z,25.85
2019-03-25T02:32:06.265Z,29.67
2019-03-25T02:34:35.151Z,31.07
2019-03-25T02:37:04.948Z,29.35
2019-03-25T02:39:33.852Z,31.00
2019-03-25T02:42:02.843Z,28.52
2019-03-25T02:44:31.737Z,24.40
2019-03-25T02:47:00.626Z,28.32
2019-03-25T02:49:29.513Z,27.30
2019-03-25T02:51:58.404Z,29.92
2019-03-25T02:54:27.289Z,28.10
2019-03-25T02:57:00.380Z,29.95
2019-03-25T02:59:29.302Z,33.30
2019-03-25T03:01:58.280Z,32.35
2019-03-25T03:04:27.252Z,37.42
2019-03-25T03:06:56.141Z,26.20
2019-03-25T03:09:25.163Z,26.07
2019-03-25T03:11:54.233Z,30.40
2019-03-25T03:14:23.126Z,28.83
2019-03-25T03:16:52.012Z,34.00
2019-03-25T03:19:23.464Z,26.20
2019-03-25T03:21:52.449Z,23.30
2019-03-25T03:24:21.447Z,25.77
2019-03-25T03:26:50.330Z,23.00
2019-03-25T03:29:19.131Z,23.38
2019-03-25T03:31:48.012Z,27.13
2019-03-25T03:34:16.827Z,28.27
2019-03-25T03:36:45.893Z,56.92
2019-03-25T03:39:14.791Z,61.95
2019-03-25T03:41:43.769Z,70.92
2019-03-25T03:44:12.658Z,81.72
2019-03-25T03:46:41.474Z,93.35
2019-03-25T03:49:10.437Z,43.02
2019-03-25T03:51:39.365Z,42.70
2019-03-25T03:54:08.319Z,34.15
2019-03-25T03:56:39.728Z,52.62
2019-03-25T03:59:10.500Z,35.33
2019-03-25T04:01:39.296Z,60.73
2019-03-25T04:04:08.281Z,48.45
2019-03-25T04:06:37.188Z,56.55
2019-03-25T04:09:06.790Z,57.35
2019-03-25T04:11:35.667Z,58.60
2019-03-25T04:14:04.673Z,45.70
2019-03-25T04:16:33.547Z,38.80
2019-03-25T04:19:02.447Z,37.30
2019-03-25T04:21:33.803Z,36.30
2019-03-25T04:24:02.646Z,45.50
2019-03-25T04:26:31.765Z,40.23
2019-03-25T04:29:00.657Z,60.90
2019-03-25T04:31:29.650Z,41.40
2019-03-25T04:33:59.399Z,47.67
2019-03-25T04:36:29.377Z,38.23
2019-03-25T04:39:01.436Z,56.00
2019-03-25T04:41:30.332Z,65.47
2019-03-25T04:43:59.317Z,51.10
2019-03-25T04:46:29.333Z,35.35
2019-03-25T04:48:58.632Z,61.15
2019-03-25T04:51:27.521Z,86.78
2019-03-25T04:53:56.296Z,58.68
2019-03-25T04:56:25.201Z,38.75
2019-03-25T04:58:54.090Z,34.83
2019-03-25T05:01:22.994Z,47.83
2019-03-25T05:03:51.870Z,71.25
2019-03-25T05:06:21.887Z,73.67
2019-03-25T05:08:50.772Z,45.20
2019-03-25T05:11:30.509Z,32.90
2019-03-25T05:13:54.391Z,39.73
2019-03-25T05:16:23.277Z,41.02
2019-03-25T05:18:52.167Z,38.55
2019-03-25T05:21:21.159Z,31.62
2019-03-25T05:23:51.072Z,40.55
2019-03-25T05:26:21.095Z,38.90
2019-03-25T05:28:49.890Z,51.65
2019-03-25T05:31:18.724Z,42.38
2019-03-25T05:33:47.660Z,48.35
2019-03-25T05:36:16.547Z,45.15
2019-03-25T05:38:45.438Z,46.05
2019-03-25T05:41:14.423Z,35.33
2019-03-25T05:43:44.338Z,37.13
2019-03-25T05:46:16.403Z,46.60
2019-03-25T05:48:45.407Z,41.18
2019-03-25T05:51:19.201Z,43.98
2019-03-25T05:53:48.093Z,37.40
2019-03-25T05:56:17.083Z,35.25
2019-03-25T05:58:45.970Z,36.55
2019-03-25T06:01:14.860Z,34.83
2019-03-25T06:03:43.854Z,35.15
2019-03-25T06:06:15.509Z,37.10
2019-03-25T06:08:44.411Z,38.85
2019-03-25T06:11:13.386Z,34.33
2019-03-25T06:13:42.173Z,25.92
2019-03-25T06:16:11.166Z,26.68
2019-03-25T06:18:40.992Z,40.90
2019-03-25T06:21:13.259Z,41.02
2019-03-25T06:23:42.140Z,28.73
2019-03-25T06:26:11.044Z,24.43
2019-03-25T06:28:39.917Z,29.63
2019-03-25T06:31:08.677Z,28.50
2019-03-25T06:33:37.795Z,25.60
2019-03-25T06:36:06.995Z,27.30
2019-03-25T06:38:39.101Z,16.45
2019-03-25T06:41:06.924Z,27.20
2019-03-25T06:43:36.016Z,22.67
2019-03-25T06:46:04.922Z,22.27
2019-03-25T06:48:36.284Z,29.60
2019-03-25T06:51:06.908Z,31.62
2019-03-25T06:53:35.775Z,25.17
2019-03-25T06:56:07.757Z,23.98
2019-03-25T06:58:35.191Z,20.12
2019-03-25T07:01:04.187Z,45.67
2019-03-25T07:03:33.073Z,23.62
2019-03-25T07:06:04.418Z,23.57
2019-03-25T07:08:33.321Z,16.07
2019-03-25T07:11:06.094Z,18.00
2019-03-25T07:13:35.081Z,27.87
2019-03-25T07:16:04.175Z,15.50
2019-03-25T07:18:33.064Z,16.15
2019-03-25T07:21:01.955Z,21.35
2019-03-25T07:23:30.781Z,15.13
2019-03-25T07:25:59.538Z,16.95
2019-03-25T07:28:30.960Z,16.70
2019-03-25T07:30:59.156Z,15.28
2019-03-25T07:33:30.704Z,18.40
2019-03-25T07:35:59.591Z,18.02
2019-03-25T07:38:28.481Z,17.75
2019-03-25T07:40:59.984Z,23.22
2019-03-25T07:43:28.924Z,15.38
2019-03-25T07:45:57.813Z,21.40
2019-03-25T07:48:26.606Z,14.87
2019-03-25T07:50:57.151Z,21.05
2019-03-25T07:53:26.025Z,20.10
2019-03-25T07:55:54.911Z,15.45
2019-03-25T07:58:23.849Z,20.57
2019-03-25T08:00:52.811Z,15.10
2019-03-25T08:03:21.811Z,17.52
2019-03-25T08:05:50.599Z,15.28
2019-03-25T08:08:19.485Z,16.75
2019-03-25T08:10:48.465Z,15.10
2019-03-25T08:13:17.466Z,12.03
2019-03-25T08:15:47.492Z,15.35
2019-03-25T08:18:20.419Z,16.97
2019-03-25T08:20:49.332Z,14.10
2019-03-25T08:23:19.250Z,12.73
2019-03-25T08:25:48.132Z,18.40
2019-03-25T08:28:17.041Z,15.38
2019-03-25T08:30:53.225Z,17.52
2019-03-25T08:33:22.177Z,13.88
2019-03-25T08:35:57.668Z,14.07
2019-03-25T08:38:26.610Z,12.90
2019-03-25T08:40:55.501Z,14.40
2019-03-25T08:43:25.275Z,15.78
2019-03-25T08:45:54.199Z,13.15
2019-03-25T08:48:27.266Z,15.40
2019-03-25T08:50:56.181Z,16.60
2019-03-25T08:53:25.080Z,12.25
2019-03-25T08:55:54.062Z,10.48
2019-03-25T08:58:27.062Z,18.70
2019-03-25T09:00:55.935Z,10.55
2019-03-25T09:03:24.927Z,16.50
2019-03-25T09:05:53.817Z,17.37
2019-03-25T09:08:22.808Z,18.17
2019-03-25T09:10:55.235Z,19.77
2019-03-25T09:13:24.170Z,20.82
2019-03-25T09:15:58.180Z,20.02
2019-03-25T09:18:27.071Z,19.62
2019-03-25T09:20:55.967Z,18.82
2019-03-25T09:23:24.852Z,18.15
2019-03-25T09:25:53.645Z,12.73
2019-03-25T09:28:24.531Z,18.73
2019-03-25T09:30:56.132Z,16.50
2019-03-25T09:33:25.307Z,14.25
2019-03-25T09:35:59.536Z,19.32
2019-03-25T09:38:36.973Z,13.72
2019-03-25T09:41:08.607Z,13.20
2019-03-25T09:43:40.586Z,11.00
2019-03-25T09:46:11.989Z,14.07
2019-03-25T09:48:41.907Z,15.10
2019-03-25T09:51:13.778Z,18.73
2019-03-25T09:53:42.757Z,17.10
2019-03-25T09:56:11.646Z,15.00
2019-03-25T09:58:47.028Z,8.63
2019-03-25T10:01:15.977Z,11.30
2019-03-25T10:03:44.867Z,19.40
2019-03-25T10:06:16.242Z,13.48
2019-03-25T10:08:45.019Z,12.98
2019-03-25T10:11:16.356Z,16.67
2019-03-25T10:13:45.151Z,20.52
2019-03-25T10:16:14.130Z,10.13
2019-03-25T10:18:43.016Z,12.65
2019-03-25T10:21:11.905Z,16.20
2019-03-25T10:23:40.797Z,11.83
2019-03-25T10:26:09.684Z,6.72
2019-03-25T10:28:47.892Z,14.13
2019-03-25T10:31:09.105Z,11.88
2019-03-25T10:33:42.140Z,9.35
2019-03-25T10:36:11.083Z,10.60
2019-03-25T10:38:40.079Z,8.23
2019-03-25T10:41:08.960Z,12.90
2019-03-25T10:43:40.311Z,9.28
2019-03-25T10:46:09.198Z,10.72
2019-03-25T10:48:38.087Z,8.83
2019-03-25T10:51:10.665Z,9.55
2019-03-25T10:53:39.553Z,7.97
2019-03-25T10:56:08.441Z,8.25
2019-03-25T10:58:37.432Z,8.25
2019-03-25T11:01:06.325Z,11.28
2019-03-25T11:03:35.213Z,10.15
2019-03-25T11:06:04.204Z,12.93
2019-03-25T11:08:36.985Z,8.60
2019-03-25T11:11:06.433Z,9.43
2019-03-25T11:13:35.590Z,10.25
2019-03-25T11:16:04.575Z,9.08
2019-03-25T11:18:34.605Z,8.23
2019-03-25T11:21:03.489Z,10.30
2019-03-25T11:23:37.026Z,9.48
2019-03-25T11:26:05.974Z,10.88
2019-03-25T11:28:34.741Z,13.32
2019-03-25T11:31:06.175Z,9.98
2019-03-25T11:33:36.120Z,11.68
2019-03-25T11:36:10.003Z,10.98
2019-03-25T11:38:38.918Z,9.30
2019-03-25T11:41:08.698Z,9.28
2019-03-25T11:43:37.526Z,11.83
2019-03-25T11:46:06.304Z,9.58
2019-03-25T11:48:35.294Z,14.65
2019-03-25T11:51:05.207Z,12.60
2019-03-25T11:53:35.152Z,14.78
2019-03-25T11:56:04.009Z,10.25
2019-03-25T11:58:32.826Z,14.70
2019-03-25T12:01:05.784Z,7.92
2019-03-25T12:03:34.689Z,15.43
2019-03-25T12:06:04.586Z,10.23
2019-03-25T12:08:33.477Z,8.20
2019-03-25T12:11:02.365Z,8.95
2019-03-25T12:13:31.579Z,11.40
2019-03-25T12:16:00.557Z,7.53
2019-03-25T12:18:29.442Z,8.63
2019-03-25T12:20:58.332Z,13.88
2019-03-25T12:23:27.225Z,7.75
2019-03-25T12:25:56.114Z,9.33
2019-03-25T12:28:25.113Z,8.15
2019-03-25T12:30:56.104Z,10.08
2019-03-25T12:33:24.624Z,8.25
2019-03-25T12:35:55.940Z,8.68
2019-03-25T12:38:23.938Z,7.92
2019-03-25T12:40:52.826Z,4.67
2019-03-25T12:43:21.716Z,6.53
2019-03-25T12:45:54.824Z,4.55
2019-03-25T12:48:27.691Z,3.33
2019-03-25T12:50:56.577Z,5.95
2019-03-25T12:53:25.473Z,3.25
2019-03-25T12:55:59.988Z,3.52
2019-03-25T12:58:28.877Z,4.75
2019-03-25T13:00:57.872Z,4.85
2019-03-25T13:03:26.759Z,4.25
2019-03-25T13:05:55.649Z,6.08
2019-03-25T13:08:32.809Z,3.02
2019-03-25T13:10:55.069Z,2.05
2019-03-25T13:13:31.431Z,2.25
2019-03-25T13:16:01.463Z,5.05
2019-03-25T13:18:31.520Z,1.98
2019-03-25T13:21:00.871Z,3.30
2019-03-25T13:23:35.205Z,10.08
2019-03-25T13:26:06.941Z,5.15
2019-03-25T13:28:35.827Z,22.05
2019-03-25T13:31:04.729Z,3.45
2019-03-25T13:33:33.645Z,12.78
2019-03-25T13:36:07.723Z,6.42
2019-03-25T13:38:36.611Z,11.33
2019-03-25T13:41:05.601Z,8.30
2019-03-25T13:43:36.556Z,4.35
2019-03-25T13:46:05.994Z,12.03
2019-03-25T13:48:35.081Z,4.70
2019-03-25T13:51:05.081Z,12.03
2019-03-25T13:53:40.597Z,3.80
2019-03-25T13:56:09.489Z,3.75
2019-03-25T13:58:38.501Z,3.83
2019-03-25T14:01:07.366Z,17.55
2019-03-25T14:03:37.349Z,6.22
2019-03-25T14:06:11.486Z,10.70
2019-03-25T14:08:42.952Z,4.62
2019-03-25T14:11:11.934Z,6.50
2019-03-25T14:13:48.723Z,8.83
2019-03-25T14:16:11.251Z,8.20
2019-03-25T14:18:40.139Z,8.53
2019-03-25T14:21:09.134Z,4.47
2019-03-25T14:23:38.024Z,8.98
2019-03-25T14:26:06.913Z,7.85
2019-03-25T14:28:38.365Z,9.48
2019-03-25T14:31:07.353Z,9.00
2019-03-25T14:33:36.350Z,19.60
2019-03-25T14:36:05.338Z,21.20
2019-03-25T14:38:34.431Z,18.07
2019-03-25T14:41:04.043Z,9.30
2019-03-25T14:43:33.037Z,7.58
2019-03-25T14:46:02.060Z,6.78
2019-03-25T14:48:31.216Z,17.25
2019-03-25T14:51:00.107Z,9.40
2019-03-25T14:53:31.403Z,8.95
2019-03-25T14:56:00.343Z,8.28
2019-03-25T14:58:29.243Z,5.87
2019-03-25T15:00:58.534Z,10.93
2019-03-25T15:03:28.726Z,8.90
2019-03-25T15:05:57.641Z,10.10
2019-03-25T15:08:26.532Z,10.85
2019-03-25T15:10:55.420Z,7.42
2019-03-25T15:13:24.214Z,9.35
2019-03-25T15:15:53.097Z,8.30
2019-03-25T15:18:21.997Z,7.53
2019-03-25T15:20:53.744Z,9.98
2019-03-25T15:23:23.758Z,13.22
2019-03-25T15:25:52.667Z,10.08
2019-03-25T15:28:21.640Z,5.45
2019-03-25T15:30:50.531Z,7.55
2019-03-25T15:33:19.527Z,6.28
2019-03-25T15:35:48.412Z,5.78
2019-03-25T15:38:20.011Z,5.25
2019-03-25T15:40:48.957Z,8.70
2019-03-25T15:43:17.845Z,9.85
2019-03-25T15:45:48.418Z,9.75
2019-03-25T15:48:18.387Z,10.55
2019-03-25T15:50:47.379Z,9.05
2019-03-25T15:53:16.373Z,7.92
2019-03-25T15:55:45.262Z,10.35
2019-03-25T15:58:21.687Z,8.68
2019-03-25T16:00:48.277Z,10.30
2019-03-25T16:03:15.311Z,9.08
2019-03-25T16:05:47.147Z,14.28
2019-03-25T16:08:16.062Z,10.28
2019-03-25T16:10:44.950Z,12.33
2019-03-25T16:13:13.995Z,12.82
2019-03-25T16:15:43.260Z,17.07
2019-03-25T16:18:18.074Z,16.73
2019-03-25T16:20:48.001Z,18.17
2019-03-25T16:23:16.974Z,16.85
2019-03-25T16:25:45.865Z,19.32
2019-03-25T16:28:14.751Z,10.08
2019-03-25T16:30:44.768Z,12.85
2019-03-25T16:33:17.425Z,16.17
2019-03-25T16:35:47.276Z,15.47
2019-03-25T16:38:16.152Z,24.15
2019-03-25T16:40:45.138Z,20.82
2019-03-25T16:43:14.029Z,14.65
2019-03-25T16:45:42.917Z,16.97
2019-03-25T16:48:11.914Z,22.42
2019-03-25T16:50:42.012Z,19.40
2019-03-25T16:53:10.917Z,18.30
2019-03-25T16:55:39.808Z,18.23
2019-03-25T16:58:08.801Z,23.05
2019-03-25T17:00:43.688Z,20.35
2019-03-25T17:03:16.511Z,17.12
2019-03-25T17:05:46.527Z,17.73
2019-03-25T17:08:15.418Z,24.47
2019-03-25T17:10:45.327Z,21.45
2019-03-25T17:13:14.400Z,17.55
2019-03-25T17:15:43.314Z,15.53
2019-03-25T17:18:13.430Z,15.35
2019-03-25T17:20:42.627Z,12.90
2019-03-25T17:23:11.621Z,10.72
2019-03-25T17:25:40.512Z,14.68
2019-03-25T17:28:09.250Z,14.87
2019-03-25T17:30:38.185Z,16.15
2019-03-25T17:33:07.176Z,15.93
2019-03-25T17:35:36.071Z,16.37
2019-03-25T17:38:09.407Z,12.95
2019-03-25T17:40:38.467Z,11.25
2019-03-25T17:43:07.345Z,11.45
2019-03-25T17:45:41.148Z,12.75
2019-03-25T17:48:13.934Z,15.32
2019-03-25T17:50:43.854Z,13.73
2019-03-25T17:53:12.734Z,11.22
2019-03-25T17:55:41.737Z,8.48
2019-03-25T17:58:10.714Z,12.37
2019-03-25T18:00:47.604Z,8.38
2019-03-25T18:03:16.584Z,10.85
2019-03-25T18:05:50.490Z,16.80
2019-03-25T18:08:22.241Z,11.60
2019-03-25T18:10:57.611Z,14.40
2019-03-25T18:13:27.311Z,7.62
2019-03-25T18:15:58.311Z,15.20
2019-03-25T18:18:26.613Z,9.00
2019-03-25T18:20:55.503Z,11.75
2019-03-25T18:23:24.496Z,6.67
2019-03-25T18:25:53.392Z,11.45
2019-03-25T18:28:22.374Z,11.63
2019-03-25T18:30:52.335Z,12.45
2019-03-25T18:33:21.383Z,9.45
2019-03-25T18:35:50.274Z,11.20
2019-03-25T18:38:19.366Z,10.55
2019-03-25T18:40:48.400Z,10.85
2019-03-25T18:43:17.352Z,13.35
2019-03-25T18:45:46.296Z,9.83
2019-03-25T18:48:15.168Z,9.60
2019-03-25T18:50:46.681Z,15.28
2019-03-25T18:53:15.897Z,13.25
2019-03-25T18:55:44.816Z,7.15
2019-03-25T18:58:13.559Z,5.30
2019-03-25T19:00:42.869Z,11.57
2019-03-25T19:03:11.774Z,10.10
2019-03-25T19:05:40.857Z,6.17
2019-03-25T19:08:09.758Z,6.97
2019-03-25T19:10:38.718Z,9.98
2019-03-25T19:13:07.718Z,9.78
2019-03-25T19:15:36.634Z,8.10
2019-03-25T19:18:05.614Z,12.65
2019-03-25T19:20:34.750Z,7.78
2019-03-25T19:23:03.720Z,11.30
2019-03-25T19:25:32.674Z,10.95
2019-03-25T19:28:01.564Z,9.58
2019-03-25T19:30:30.582Z,6.85
2019-03-25T19:32:59.545Z,14.60
2019-03-25T19:35:30.003Z,12.53
2019-03-25T19:37:58.999Z,7.42
2019-03-25T19:40:27.971Z,11.22
2019-03-25T19:42:57.983Z,9.10
2019-03-25T19:45:30.860Z,8.30
2019-03-25T19:48:03.357Z,8.88
2019-03-25T19:50:34.185Z,5.70
2019-03-25T19:53:02.985Z,9.50
2019-03-25T19:55:31.945Z,5.60
2019-03-25T19:58:03.395Z,8.53
2019-03-25T20:00:44.415Z,12.47
2019-03-25T20:03:14.374Z,9.65
2019-03-25T20:05:43.306Z,7.22
2019-03-25T20:08:12.277Z,8.65
2019-03-25T20:10:41.278Z,9.58
2019-03-25T20:13:10.143Z,6.72
2019-03-25T20:15:45.850Z,8.55
2019-03-25T20:18:09.557Z,8.23
2019-03-25T20:20:39.687Z,14.65
2019-03-25T20:23:14.171Z,10.85
2019-03-25T20:25:43.225Z,6.83
2019-03-25T20:28:12.189Z,8.10
2019-03-25T20:30:41.075Z,8.73
2019-03-25T20:33:10.926Z,9.50
2019-03-25T20:35:44.527Z,8.28
2019-03-25T20:38:18.720Z,11.48
2019-03-25T20:40:47.688Z,6.12
2019-03-25T20:43:16.611Z,10.55
2019-03-25T20:45:45.382Z,5.10
2019-03-25T20:48:14.371Z,8.58
2019-03-25T20:50:43.358Z,10.23
2019-03-25T20:53:17.355Z,9.15
2019-03-25T20:55:46.514Z,12.30
2019-03-25T20:58:15.347Z,14.93
2019-03-25T21:00:50.216Z,12.70
2019-03-25T21:03:24.788Z,10.50
2019-03-25T21:05:52.556Z,15.32
2019-03-25T21:08:24.052Z,9.28
2019-03-25T21:10:55.105Z,12.75
2019-03-25T21:13:23.540Z,12.05
2019-03-25T21:15:56.190Z,9.35
2019-03-25T21:18:27.084Z,11.20
2019-03-25T21:20:56.088Z,7.80
2019-03-25T21:23:25.026Z,14.00
2019-03-25T21:25:54.820Z,14.20
2019-03-25T21:28:23.724Z,7.75
2019-03-25T21:30:52.825Z,9.03
2019-03-25T21:33:21.725Z,16.67
2019-03-25T21:35:50.639Z,7.70
2019-03-25T21:38:19.594Z,9.40
2019-03-25T21:40:48.615Z,8.60
2019-03-25T21:43:17.720Z,7.45
2019-03-25T21:45:46.665Z,15.38
2019-03-25T21:48:15.585Z,18.60
2019-03-25T21:50:44.561Z,19.40
2019-03-25T21:53:16.182Z,11.35
2019-03-25T21:55:45.239Z,17.62
2019-03-25T21:58:14.186Z,11.12
2019-03-25T22:00:43.225Z,14.28
2019-03-25T22:03:12.493Z,9.58
2019-03-25T22:05:46.689Z,8.05
2019-03-25T22:08:16.605Z,5.50
2019-03-25T22:10:47.442Z,6.55
2019-03-25T22:13:16.431Z,7.50
2019-03-25T22:15:45.322Z,9.45
2019-03-25T22:18:14.209Z,9.05
2019-03-25T22:20:43.222Z,8.00
2019-03-25T22:23:12.193Z,6.37
2019-03-25T22:25:41.187Z,2.98
2019-03-25T22:28:10.078Z,11.30
2019-03-25T22:30:42.753Z,9.88
2019-03-25T22:33:24.846Z,7.80
2019-03-25T22:35:43.196Z,6.47
2019-03-25T22:38:12.084Z,8.30
2019-03-25T22:40:40.982Z,11.50
2019-03-25T22:43:13.399Z,9.23
2019-03-25T22:45:42.222Z,5.37
2019-03-25T22:48:11.027Z,6.78
2019-03-25T22:50:42.395Z,6.15
2019-03-25T22:53:11.258Z,6.28
2019-03-25T22:55:40.147Z,6.10
2019-03-25T22:58:11.697Z,6.62
2019-03-25T23:00:43.198Z,6.60
2019-03-25T23:03:13.573Z,3.60
2019-03-25T23:05:42.564Z,6.58
2019-03-25T23:08:11.456Z,6.08
2019-03-25T23:10:40.344Z,9.48
2019-03-25T23:13:09.106Z,6.10
2019-03-25T23:15:38.843Z,6.97
2019-03-25T23:18:15.081Z,3.98
2019-03-25T23:20:49.913Z,6.53
2019-03-25T23:23:18.615Z,8.80
2019-03-25T23:25:48.428Z,6.00
2019-03-25T23:28:19.877Z,6.45
2019-03-25T23:30:51.766Z,4.87
2019-03-25T23:33:24.498Z,6.87
2019-03-25T23:35:53.408Z,5.60
2019-03-25T23:38:22.295Z,5.33
2019-03-25T23:40:51.287Z,4.15
2019-03-25T23:43:22.650Z,6.60
2019-03-25T23:45:54.914Z,6.53
2019-03-25T23:48:23.794Z,5.83
2019-03-25T23:50:56.020Z,5.78
2019-03-25T23:53:26.800Z,6.22
2019-03-25T23:56:01.419Z,4.95
2019-03-25T23:58:30.307Z,6.50
